sensor_id;sensor_type;location;lat;lon;timestamp;pressure;altitude;pressure_sealevel;temperature;humidity
70254;BME280;57649;42.968;1.608;2024-03-29T00:00:40;95060.16;;;9.94;91.57
70254;BME280;57649;42.968;1.608;2024-03-29T00:03:06;95052.97;;;9.95;91.13
70254;BME280;57649;42.968;1.608;2024-03-29T00:05:35;95037.69;;;10.02;90.50
70254;BME280;57649;42.968;1.608;2024-03-29T00:08:01;95045.47;;;10.03;90.38
70254;BME280;57649;42.968;1.608;2024-03-29T00:10:27;95050.53;;;10.12;89.00
70254;BME280;57649;42.968;1.608;2024-03-29T00:12:52;95062.72;;;10.08;89.04
70254;BME280;57649;42.968;1.608;2024-03-29T00:15:18;95065.44;;;10.19;88.10
70254;BME280;57649;42.968;1.608;2024-03-29T00:17:43;95059.97;;;10.33;87.05
70254;BME280;57649;42.968;1.608;2024-03-29T00:20:09;95044.19;;;10.31;87.76
70254;BME280;57649;42.968;1.608;2024-03-29T00:22:34;95034.09;;;10.27;88.26
70254;BME280;57649;42.968;1.608;2024-03-29T00:25:00;95036.34;;;10.30;88.24
70254;BME280;57649;42.968;1.608;2024-03-29T00:27:25;95031.06;;;10.42;88.28
70254;BME280;57649;42.968;1.608;2024-03-29T00:30:02;95046.91;;;10.43;86.94
70254;BME280;57649;42.968;1.608;2024-03-29T00:32:28;95046.72;;;10.56;83.23
70254;BME280;57649;42.968;1.608;2024-03-29T00:34:53;95036.75;;;10.64;85.09
70254;BME280;57649;42.968;1.608;2024-03-29T00:37:19;95026.22;;;10.50;86.40
70254;BME280;57649;42.968;1.608;2024-03-29T00:39:45;95022.75;;;10.50;86.20
70254;BME280;57649;42.968;1.608;2024-03-29T00:42:11;95044.03;;;10.56;86.44
70254;BME280;57649;42.968;1.608;2024-03-29T00:44:41;95045.09;;;10.55;86.32
70254;BME280;57649;42.968;1.608;2024-03-29T00:47:07;95029.72;;;10.51;86.61
70254;BME280;57649;42.968;1.608;2024-03-29T00:49:32;95051.97;;;10.51;87.27
70254;BME280;57649;42.968;1.608;2024-03-29T00:51:59;95044.19;;;10.31;89.20
70254;BME280;57649;42.968;1.608;2024-03-29T00:54:24;95049.28;;;10.33;89.54
70254;BME280;57649;42.968;1.608;2024-03-29T00:56:50;95036.97;;;10.32;90.64
70254;BME280;57649;42.968;1.608;2024-03-29T00:59:15;95026.41;;;10.18;91.81
70254;BME280;57649;42.968;1.608;2024-03-29T01:01:41;95035.88;;;9.77;94.81
70254;BME280;57649;42.968;1.608;2024-03-29T01:04:06;95038.97;;;9.74;95.80
70254;BME280;57649;42.968;1.608;2024-03-29T01:06:32;95021.38;;;9.67;96.92
70254;BME280;57649;42.968;1.608;2024-03-29T01:08:57;95015.81;;;9.68;97.88
70254;BME280;57649;42.968;1.608;2024-03-29T01:11:23;95022.81;;;9.69;98.19
70254;BME280;57649;42.968;1.608;2024-03-29T01:13:48;95011.94;;;9.46;99.51
70254;BME280;57649;42.968;1.608;2024-03-29T01:16:14;95024.91;;;9.42;100.00
70254;BME280;57649;42.968;1.608;2024-03-29T01:18:39;95017.72;;;9.42;100.00
70254;BME280;57649;42.968;1.608;2024-03-29T01:21:06;95018.09;;;9.46;100.00
70254;BME280;57649;42.968;1.608;2024-03-29T01:23:32;95025.56;;;9.37;100.00
70254;BME280;57649;42.968;1.608;2024-03-29T01:25:57;95026.63;;;9.36;100.00
70254;BME280;57649;42.968;1.608;2024-03-29T01:28:22;95042.81;;;9.41;100.00
70254;BME280;57649;42.968;1.608;2024-03-29T01:30:54;95037.75;;;9.27;100.00
70254;BME280;57649;42.968;1.608;2024-03-29T01:33:20;95033.31;;;9.20;100.00
70254;BME280;57649;42.968;1.608;2024-03-29T01:35:46;95004.91;;;9.26;100.00
70254;BME280;57649;42.968;1.608;2024-03-29T01:38:12;95006.34;;;9.29;100.00
70254;BME280;57649;42.968;1.608;2024-03-29T01:40:37;94990.16;;;9.23;100.00
70254;BME280;57649;42.968;1.608;2024-03-29T01:43:03;95007.31;;;9.09;100.00
70254;BME280;57649;42.968;1.608;2024-03-29T01:45:29;95001.09;;;9.15;99.98
70254;BME280;57649;42.968;1.608;2024-03-29T01:47:55;95015.38;;;9.28;100.00
70254;BME280;57649;42.968;1.608;2024-03-29T01:50:20;95042.97;;;9.21;100.00
70254;BME280;57649;42.968;1.608;2024-03-29T01:52:46;95046.28;;;9.17;100.00
70254;BME280;57649;42.968;1.608;2024-03-29T01:55:12;95042.28;;;9.01;100.00
70254;BME280;57649;42.968;1.608;2024-03-29T01:57:38;95033.22;;;9.09;100.00
70254;BME280;57649;42.968;1.608;2024-03-29T02:00:06;95021.16;;;8.99;100.00
70254;BME280;57649;42.968;1.608;2024-03-29T02:02:33;95026.25;;;9.01;100.00
70254;BME280;57649;42.968;1.608;2024-03-29T02:04:58;95016.66;;;8.93;100.00
70254;BME280;57649;42.968;1.608;2024-03-29T02:07:25;94994.34;;;8.88;100.00
70254;BME280;57649;42.968;1.608;2024-03-29T02:09:50;94996.81;;;8.89;100.00
70254;BME280;57649;42.968;1.608;2024-03-29T02:12:16;95007.78;;;8.74;100.00
70254;BME280;57649;42.968;1.608;2024-03-29T02:14:41;95008.63;;;8.68;100.00
70254;BME280;57649;42.968;1.608;2024-03-29T02:17:08;95016.47;;;8.63;100.00
70254;BME280;57649;42.968;1.608;2024-03-29T02:23:14;95032.22;;;8.64;100.00
70254;BME280;57649;42.968;1.608;2024-03-29T02:25:41;95033.00;;;8.72;100.00
70254;BME280;57649;42.968;1.608;2024-03-29T02:28:07;95028.75;;;8.64;100.00
70254;BME280;57649;42.968;1.608;2024-03-29T02:30:32;95002.88;;;8.71;100.00
70254;BME280;57649;42.968;1.608;2024-03-29T02:32:58;95033.28;;;8.63;100.00
70254;BME280;57649;42.968;1.608;2024-03-29T02:35:24;95026.97;;;8.51;100.00
70254;BME280;57649;42.968;1.608;2024-03-29T02:37:50;95016.38;;;8.44;100.00
70254;BME280;57649;42.968;1.608;2024-03-29T02:40:15;95026.41;;;8.42;100.00
70254;BME280;57649;42.968;1.608;2024-03-29T02:42:41;95019.44;;;8.35;100.00
70254;BME280;57649;42.968;1.608;2024-03-29T02:45:07;95010.03;;;8.32;100.00
70254;BME280;57649;42.968;1.608;2024-03-29T02:50:54;95005.34;;;8.27;100.00
70254;BME280;57649;42.968;1.608;2024-03-29T02:53:20;94986.44;;;8.36;100.00
70254;BME280;57649;42.968;1.608;2024-03-29T02:55:45;94960.59;;;8.43;100.00
70254;BME280;57649;42.968;1.608;2024-03-29T02:58:10;94976.38;;;8.44;100.00
70254;BME280;57649;42.968;1.608;2024-03-29T03:00:36;94976.88;;;8.21;100.00
70254;BME280;57649;42.968;1.608;2024-03-29T03:03:02;94978.94;;;8.19;100.00
70254;BME280;57649;42.968;1.608;2024-03-29T03:05:29;94985.34;;;8.05;100.00
70254;BME280;57649;42.968;1.608;2024-03-29T03:07:54;95004.00;;;8.05;100.00
70254;BME280;57649;42.968;1.608;2024-03-29T03:10:45;95015.28;;;8.00;100.00
70254;BME280;57649;42.968;1.608;2024-03-29T03:13:28;94993.81;;;7.82;100.00
70254;BME280;57649;42.968;1.608;2024-03-29T03:15:54;95001.47;;;7.71;100.00
70254;BME280;57649;42.968;1.608;2024-03-29T03:18:20;94986.13;;;7.60;100.00
70254;BME280;57649;42.968;1.608;2024-03-29T03:20:55;94996.09;;;7.78;100.00
70254;BME280;57649;42.968;1.608;2024-03-29T03:23:23;94989.50;;;7.87;100.00
70254;BME280;57649;42.968;1.608;2024-03-29T03:26:02;94988.72;;;7.80;100.00
70254;BME280;57649;42.968;1.608;2024-03-29T03:28:30;94986.69;;;7.76;100.00
70254;BME280;57649;42.968;1.608;2024-03-29T03:30:56;94983.41;;;7.74;100.00
70254;BME280;57649;42.968;1.608;2024-03-29T03:33:21;94984.84;;;7.76;100.00
70254;BME280;57649;42.968;1.608;2024-03-29T03:35:47;94978.28;;;7.72;100.00
70254;BME280;57649;42.968;1.608;2024-03-29T03:38:13;94990.00;;;7.64;100.00
70254;BME280;57649;42.968;1.608;2024-03-29T03:40:38;94987.97;;;7.53;100.00
70254;BME280;57649;42.968;1.608;2024-03-29T03:43:05;95002.66;;;7.69;100.00
70254;BME280;57649;42.968;1.608;2024-03-29T03:45:38;94995.53;;;7.69;100.00
70254;BME280;57649;42.968;1.608;2024-03-29T03:48:05;94983.81;;;7.70;100.00
70254;BME280;57649;42.968;1.608;2024-03-29T03:50:31;94969.09;;;7.61;100.00
70254;BME280;57649;42.968;1.608;2024-03-29T03:52:56;94977.09;;;7.68;100.00
70254;BME280;57649;42.968;1.608;2024-03-29T03:55:22;94964.38;;;7.63;100.00
70254;BME280;57649;42.968;1.608;2024-03-29T03:57:47;94971.31;;;7.71;100.00
70254;BME280;57649;42.968;1.608;2024-03-29T04:00:13;94960.44;;;7.79;100.00
70254;BME280;57649;42.968;1.608;2024-03-29T04:02:38;94983.94;;;7.96;100.00
70254;BME280;57649;42.968;1.608;2024-03-29T04:05:04;94997.88;;;7.91;100.00
70254;BME280;57649;42.968;1.608;2024-03-29T04:07:29;94998.53;;;7.86;100.00
70254;BME280;57649;42.968;1.608;2024-03-29T04:09:55;94988.34;;;7.70;100.00
70254;BME280;57649;42.968;1.608;2024-03-29T04:12:20;94990.00;;;7.64;100.00
70254;BME280;57649;42.968;1.608;2024-03-29T04:14:46;94999.84;;;7.64;100.00
70254;BME280;57649;42.968;1.608;2024-03-29T04:17:11;95004.13;;;7.58;100.00
70254;BME280;57649;42.968;1.608;2024-03-29T04:19:36;95014.16;;;7.63;100.00
70254;BME280;57649;42.968;1.608;2024-03-29T04:22:02;95015.97;;;7.82;100.00
70254;BME280;57649;42.968;1.608;2024-03-29T04:24:28;95022.09;;;7.89;100.00
70254;BME280;57649;42.968;1.608;2024-03-29T04:26:53;95010.84;;;7.74;100.00
70254;BME280;57649;42.968;1.608;2024-03-29T04:29:18;95017.41;;;7.78;100.00
70254;BME280;57649;42.968;1.608;2024-03-29T04:31:45;95013.53;;;7.74;100.00
70254;BME280;57649;42.968;1.608;2024-03-29T04:34:11;95002.31;;;7.59;100.00
70254;BME280;57649;42.968;1.608;2024-03-29T04:36:36;95010.31;;;7.39;100.00
70254;BME280;57649;42.968;1.608;2024-03-29T04:39:01;95023.63;;;7.32;100.00
70254;BME280;57649;42.968;1.608;2024-03-29T04:41:27;95024.22;;;7.34;100.00
70254;BME280;57649;42.968;1.608;2024-03-29T04:43:52;95022.81;;;7.38;100.00
70254;BME280;57649;42.968;1.608;2024-03-29T04:46:18;95024.63;;;7.38;100.00
70254;BME280;57649;42.968;1.608;2024-03-29T04:48:43;95030.78;;;7.25;100.00
70254;BME280;57649;42.968;1.608;2024-03-29T04:51:10;95031.00;;;7.23;100.00
70254;BME280;57649;42.968;1.608;2024-03-29T04:53:36;95045.97;;;7.11;100.00
70254;BME280;57649;42.968;1.608;2024-03-29T04:56:03;95041.88;;;7.22;100.00
70254;BME280;57649;42.968;1.608;2024-03-29T04:58:29;95046.16;;;7.09;100.00
70254;BME280;57649;42.968;1.608;2024-03-29T05:00:55;95053.94;;;7.11;100.00
70254;BME280;57649;42.968;1.608;2024-03-29T05:03:21;95053.50;;;7.14;100.00
70254;BME280;57649;42.968;1.608;2024-03-29T05:05:47;95048.41;;;7.12;100.00
70254;BME280;57649;42.968;1.608;2024-03-29T05:08:13;95040.84;;;7.09;100.00
70254;BME280;57649;42.968;1.608;2024-03-29T05:10:42;95043.06;;;6.99;100.00
70254;BME280;57649;42.968;1.608;2024-03-29T05:13:07;95053.50;;;6.94;100.00
70254;BME280;57649;42.968;1.608;2024-03-29T05:15:33;95072.75;;;6.96;100.00
70254;BME280;57649;42.968;1.608;2024-03-29T05:17:59;95068.22;;;7.03;100.00
70254;BME280;57649;42.968;1.608;2024-03-29T05:20:24;95057.00;;;7.08;100.00
70254;BME280;57649;42.968;1.608;2024-03-29T05:22:50;95051.47;;;7.03;100.00
70254;BME280;57649;42.968;1.608;2024-03-29T05:25:15;95059.63;;;7.01;100.00
70254;BME280;57649;42.968;1.608;2024-03-29T05:27:41;95065.41;;;7.11;100.00
70254;BME280;57649;42.968;1.608;2024-03-29T05:30:07;95067.63;;;7.21;100.00
70254;BME280;57649;42.968;1.608;2024-03-29T05:32:32;95064.34;;;7.32;100.00
70254;BME280;57649;42.968;1.608;2024-03-29T05:34:57;95054.97;;;7.30;100.00
70254;BME280;57649;42.968;1.608;2024-03-29T05:37:23;95079.13;;;7.22;100.00
70254;BME280;57649;42.968;1.608;2024-03-29T05:39:51;95068.66;;;7.27;100.00
70254;BME280;57649;42.968;1.608;2024-03-29T05:42:25;95068.66;;;7.27;100.00
70254;BME280;57649;42.968;1.608;2024-03-29T05:44:51;95073.97;;;7.27;100.00
70254;BME280;57649;42.968;1.608;2024-03-29T05:47:16;95072.38;;;7.26;100.00
70254;BME280;57649;42.968;1.608;2024-03-29T05:49:41;95068.28;;;7.17;100.00
70254;BME280;57649;42.968;1.608;2024-03-29T05:52:07;95071.53;;;7.12;100.00
70254;BME280;57649;42.968;1.608;2024-03-29T05:54:32;95080.13;;;7.07;100.00
70254;BME280;57649;42.968;1.608;2024-03-29T05:56:57;95086.28;;;7.15;100.00
70254;BME280;57649;42.968;1.608;2024-03-29T05:59:23;95088.53;;;7.38;100.00
70254;BME280;57649;42.968;1.608;2024-03-29T06:01:50;95076.66;;;7.54;100.00
70254;BME280;57649;42.968;1.608;2024-03-29T06:04:16;95091.97;;;7.85;100.00
70254;BME280;57649;42.968;1.608;2024-03-29T06:07:12;95087.47;;;7.79;100.00
70254;BME280;57649;42.968;1.608;2024-03-29T06:10:03;95068.22;;;7.77;100.00
70254;BME280;57649;42.968;1.608;2024-03-29T06:12:36;95072.47;;;7.91;100.00
70254;BME280;57649;42.968;1.608;2024-03-29T06:15:04;95090.31;;;7.97;100.00
70254;BME280;57649;42.968;1.608;2024-03-29T06:17:49;95090.31;;;7.97;100.00
70254;BME280;57649;42.968;1.608;2024-03-29T06:20:17;95078.41;;;8.00;100.00
70254;BME280;57649;42.968;1.608;2024-03-29T06:22:51;95079.06;;;7.88;100.00
70254;BME280;57649;42.968;1.608;2024-03-29T06:25:22;95079.88;;;7.96;100.00
70254;BME280;57649;42.968;1.608;2024-03-29T06:27:52;95068.00;;;7.92;100.00
70254;BME280;57649;42.968;1.608;2024-03-29T06:30:26;95069.00;;;7.90;100.00
70254;BME280;57649;42.968;1.608;2024-03-29T06:33:11;95089.25;;;8.05;100.00
70254;BME280;57649;42.968;1.608;2024-03-29T06:35:45;95078.41;;;8.00;100.00
70254;BME280;57649;42.968;1.608;2024-03-29T06:38:43;95086.16;;;8.15;100.00
70254;BME280;57649;42.968;1.608;2024-03-29T06:41:14;95082.88;;;8.19;100.00
70254;BME280;57649;42.968;1.608;2024-03-29T06:43:41;95077.94;;;8.23;100.00
70254;BME280;57649;42.968;1.608;2024-03-29T06:46:09;95088.75;;;8.35;100.00
70254;BME280;57649;42.968;1.608;2024-03-29T06:48:34;95073.38;;;8.37;100.00
70254;BME280;57649;42.968;1.608;2024-03-29T06:51:00;95076.47;;;8.34;100.00
70254;BME280;57649;42.968;1.608;2024-03-29T06:53:25;95081.22;;;8.25;100.00
70254;BME280;57649;42.968;1.608;2024-03-29T06:55:51;95080.00;;;8.21;100.00
70254;BME280;57649;42.968;1.608;2024-03-29T06:58:16;95084.88;;;8.31;100.00
70254;BME280;57649;42.968;1.608;2024-03-29T07:00:45;95076.25;;;8.42;100.00
70254;BME280;57649;42.968;1.608;2024-03-29T07:03:10;95060.66;;;8.45;100.00
70254;BME280;57649;42.968;1.608;2024-03-29T07:05:35;95071.09;;;8.54;100.00
70254;BME280;57649;42.968;1.608;2024-03-29T07:08:01;95068.38;;;8.60;100.00
70254;BME280;57649;42.968;1.608;2024-03-29T07:10:26;95075.50;;;8.73;100.00
70254;BME280;57649;42.968;1.608;2024-03-29T07:12:52;95071.63;;;8.69;100.00
70254;BME280;57649;42.968;1.608;2024-03-29T07:15:17;95074.91;;;8.64;100.00
70254;BME280;57649;42.968;1.608;2024-03-29T07:17:42;95078.13;;;8.80;100.00
70254;BME280;57649;42.968;1.608;2024-03-29T07:20:09;95072.28;;;8.96;100.00
70254;BME280;57649;42.968;1.608;2024-03-29T07:22:35;95079.97;;;9.11;100.00
70254;BME280;57649;42.968;1.608;2024-03-29T07:25:00;95064.75;;;9.18;100.00
70254;BME280;57649;42.968;1.608;2024-03-29T07:27:25;95044.53;;;9.29;100.00
70254;BME280;57649;42.968;1.608;2024-03-29T07:29:53;95029.88;;;9.38;100.00
70254;BME280;57649;42.968;1.608;2024-03-29T07:32:18;95029.03;;;9.63;100.00
70254;BME280;57649;42.968;1.608;2024-03-29T07:34:43;95041.16;;;9.84;100.00
70254;BME280;57649;42.968;1.608;2024-03-29T07:37:09;95023.06;;;9.86;100.00
70254;BME280;57649;42.968;1.608;2024-03-29T07:39:40;95030.91;;;10.18;100.00
70254;BME280;57649;42.968;1.608;2024-03-29T07:42:05;95034.28;;;10.13;100.00
70254;BME280;57649;42.968;1.608;2024-03-29T07:44:31;95035.38;;;10.24;100.00
70254;BME280;57649;42.968;1.608;2024-03-29T07:46:56;95022.91;;;10.36;100.00
70254;BME280;57649;42.968;1.608;2024-03-29T07:49:21;95023.78;;;10.49;100.00
70254;BME280;57649;42.968;1.608;2024-03-29T07:51:47;95027.72;;;10.46;100.00
70254;BME280;57649;42.968;1.608;2024-03-29T07:54:13;95044.22;;;10.25;100.00
70254;BME280;57649;42.968;1.608;2024-03-29T07:56:38;95046.16;;;10.36;100.00
70254;BME280;57649;42.968;1.608;2024-03-29T07:59:04;95034.69;;;10.47;100.00
70254;BME280;57649;42.968;1.608;2024-03-29T08:01:29;95041.84;;;10.53;100.00
70254;BME280;57649;42.968;1.608;2024-03-29T08:03:55;95017.78;;;10.53;100.00
70254;BME280;57649;42.968;1.608;2024-03-29T08:06:20;95014.56;;;10.75;100.00
70254;BME280;57649;42.968;1.608;2024-03-29T08:08:48;95017.53;;;10.85;100.00
70254;BME280;57649;42.968;1.608;2024-03-29T08:11:14;95013.16;;;11.03;100.00
70254;BME280;57649;42.968;1.608;2024-03-29T08:13:40;95001.75;;;11.19;100.00
70254;BME280;57649;42.968;1.608;2024-03-29T08:16:06;95001.75;;;11.19;100.00
70254;BME280;57649;42.968;1.608;2024-03-29T08:18:31;95000.63;;;11.39;100.00
70254;BME280;57649;42.968;1.608;2024-03-29T08:20:57;95017.03;;;11.42;100.00
70254;BME280;57649;42.968;1.608;2024-03-29T08:23:24;95019.38;;;11.62;100.00
70254;BME280;57649;42.968;1.608;2024-03-29T08:25:50;94996.09;;;11.98;100.00
70254;BME280;57649;42.968;1.608;2024-03-29T08:28:20;94998.69;;;12.33;100.00
70254;BME280;57649;42.968;1.608;2024-03-29T08:31:06;95013.34;;;13.00;100.00
70254;BME280;57649;42.968;1.608;2024-03-29T08:33:35;95010.81;;;13.39;100.00
70254;BME280;57649;42.968;1.608;2024-03-29T08:36:05;95009.84;;;14.01;100.00
70254;BME280;57649;42.968;1.608;2024-03-29T08:38:31;94998.91;;;14.30;100.00
70254;BME280;57649;42.968;1.608;2024-03-29T08:40:56;95008.78;;;14.47;100.00
70254;BME280;57649;42.968;1.608;2024-03-29T08:43:22;95000.94;;;14.62;100.00
70254;BME280;57649;42.968;1.608;2024-03-29T08:45:47;94997.91;;;14.80;100.00
70254;BME280;57649;42.968;1.608;2024-03-29T08:48:13;95001.94;;;15.10;100.00
70254;BME280;57649;42.968;1.608;2024-03-29T08:50:39;95014.84;;;15.35;100.00
70254;BME280;57649;42.968;1.608;2024-03-29T08:53:05;95015.81;;;15.56;100.00
70254;BME280;57649;42.968;1.608;2024-03-29T08:55:31;95009.13;;;15.64;100.00
70254;BME280;57649;42.968;1.608;2024-03-29T08:57:57;95018.91;;;15.70;100.00
70254;BME280;57649;42.968;1.608;2024-03-29T09:00:24;95020.88;;;15.80;100.00
70254;BME280;57649;42.968;1.608;2024-03-29T09:02:49;95018.00;;;15.92;100.00
70254;BME280;57649;42.968;1.608;2024-03-29T09:05:15;95011.38;;;16.15;100.00
70254;BME280;57649;42.968;1.608;2024-03-29T09:07:40;95010.00;;;16.75;97.92
70254;BME280;57649;42.968;1.608;2024-03-29T09:10:07;95004.44;;;17.03;95.51
70254;BME280;57649;42.968;1.608;2024-03-29T09:12:32;95018.75;;;16.93;96.89
70254;BME280;57649;42.968;1.608;2024-03-29T09:14:58;95007.03;;;16.77;97.85
70254;BME280;57649;42.968;1.608;2024-03-29T09:17:23;95007.28;;;16.65;96.41
70254;BME280;57649;42.968;1.608;2024-03-29T09:19:50;95019.03;;;16.97;94.94
70254;BME280;57649;42.968;1.608;2024-03-29T09:22:17;95031.97;;;17.00;93.80
70254;BME280;57649;42.968;1.608;2024-03-29T09:24:42;95033.09;;;16.99;94.31
70254;BME280;57649;42.968;1.608;2024-03-29T09:27:08;95033.91;;;17.04;95.71
70254;BME280;57649;42.968;1.608;2024-03-29T09:29:33;95031.25;;;17.35;94.78
70254;BME280;57649;42.968;1.608;2024-03-29T09:31:59;95036.34;;;17.16;95.04
70254;BME280;57649;42.968;1.608;2024-03-29T09:34:27;95035.81;;;17.04;96.73
70254;BME280;57649;42.968;1.608;2024-03-29T09:36:52;95032.78;;;16.90;97.92
70254;BME280;57649;42.968;1.608;2024-03-29T09:39:18;95030.13;;;17.16;96.73
70254;BME280;57649;42.968;1.608;2024-03-29T09:41:44;95031.75;;;17.11;97.83
70254;BME280;57649;42.968;1.608;2024-03-29T09:44:10;95030.72;;;17.33;97.24
70254;BME280;57649;42.968;1.608;2024-03-29T09:46:36;95030.19;;;17.57;96.98
70254;BME280;57649;42.968;1.608;2024-03-29T09:49:05;95029.91;;;17.99;94.10
70254;BME280;57649;42.968;1.608;2024-03-29T09:51:32;95022.06;;;17.93;92.92
70254;BME280;57649;42.968;1.608;2024-03-29T09:53:59;95028.75;;;18.31;90.45
70254;BME280;57649;42.968;1.608;2024-03-29T09:56:26;95015.22;;;18.26;89.79
70254;BME280;57649;42.968;1.608;2024-03-29T09:58:52;95013.56;;;18.45;88.70
70254;BME280;57649;42.968;1.608;2024-03-29T10:01:18;95013.78;;;18.54;87.93
70254;BME280;57649;42.968;1.608;2024-03-29T10:03:46;95023.75;;;18.74;87.69
70254;BME280;57649;42.968;1.608;2024-03-29T10:06:13;95010.75;;;18.66;87.25
70254;BME280;57649;42.968;1.608;2024-03-29T10:08:39;95000.19;;;18.64;87.62
70254;BME280;57649;42.968;1.608;2024-03-29T10:11:05;94989.50;;;18.94;87.29
70254;BME280;57649;42.968;1.608;2024-03-29T10:13:30;94991.66;;;18.97;84.67
70254;BME280;57649;42.968;1.608;2024-03-29T10:15:56;95001.78;;;18.76;82.70
70254;BME280;57649;42.968;1.608;2024-03-29T10:18:26;94984.03;;;19.43;80.99
70254;BME280;57649;42.968;1.608;2024-03-29T10:21:05;94978.38;;;19.40;81.71
70254;BME280;57649;42.968;1.608;2024-03-29T10:23:31;94956.94;;;19.38;82.00
70254;BME280;57649;42.968;1.608;2024-03-29T10:25:57;94944.59;;;19.22;84.13
70254;BME280;57649;42.968;1.608;2024-03-29T10:28:23;94956.53;;;19.55;83.63
70254;BME280;57649;42.968;1.608;2024-03-29T10:30:49;94969.72;;;19.67;84.03
70254;BME280;57649;42.968;1.608;2024-03-29T10:33:15;94969.09;;;19.07;87.92
70254;BME280;57649;42.968;1.608;2024-03-29T10:35:42;94965.91;;;18.99;88.02
70254;BME280;57649;42.968;1.608;2024-03-29T10:38:09;94961.19;;;19.50;86.95
70254;BME280;57649;42.968;1.608;2024-03-29T10:40:38;94945.91;;;19.59;86.25
70254;BME280;57649;42.968;1.608;2024-03-29T10:43:04;94950.09;;;19.80;85.44
70254;BME280;57649;42.968;1.608;2024-03-29T10:45:34;94956.16;;;19.96;84.23
70254;BME280;57649;42.968;1.608;2024-03-29T10:48:02;94961.16;;;19.15;87.73
70254;BME280;57649;42.968;1.608;2024-03-29T10:50:31;94947.47;;;19.65;88.49
70254;BME280;57649;42.968;1.608;2024-03-29T10:52:59;94957.81;;;19.63;87.43
70254;BME280;57649;42.968;1.608;2024-03-29T10:55:28;94953.44;;;19.38;89.05
70254;BME280;57649;42.968;1.608;2024-03-29T10:57:55;94948.47;;;19.11;91.11
70254;BME280;57649;42.968;1.608;2024-03-29T11:00:23;94938.72;;;19.10;92.23
70254;BME280;57649;42.968;1.608;2024-03-29T11:05:17;94925.41;;;19.13;94.46
70254;BME280;57649;42.968;1.608;2024-03-29T11:07:43;94928.00;;;18.89;94.14
70254;BME280;57649;42.968;1.608;2024-03-29T11:10:29;94916.88;;;18.96;93.73
70254;BME280;57649;42.968;1.608;2024-03-29T11:15:44;94914.47;;;19.23;93.59
70254;BME280;57649;42.968;1.608;2024-03-29T11:18:11;94913.31;;;18.95;94.83
70254;BME280;57649;42.968;1.608;2024-03-29T11:20:38;94908.53;;;18.77;96.15
70254;BME280;57649;42.968;1.608;2024-03-29T11:23:11;94896.19;;;18.55;97.18
70254;BME280;57649;42.968;1.608;2024-03-29T11:25:44;94898.06;;;18.65;96.93
70254;BME280;57649;42.968;1.608;2024-03-29T11:28:15;94897.16;;;18.80;96.02
70254;BME280;57649;42.968;1.608;2024-03-29T11:30:46;94892.03;;;18.73;95.44
70254;BME280;57649;42.968;1.608;2024-03-29T11:33:35;94896.91;;;18.71;95.86
70254;BME280;57649;42.968;1.608;2024-03-29T11:36:16;94897.50;;;19.08;92.76
70254;BME280;57649;42.968;1.608;2024-03-29T11:38:43;94910.63;;;19.30;91.98
70254;BME280;57649;42.968;1.608;2024-03-29T11:41:14;94904.28;;;19.69;91.07
70254;BME280;57649;42.968;1.608;2024-03-29T11:43:41;94898.28;;;20.01;88.48
70254;BME280;57649;42.968;1.608;2024-03-29T11:46:14;94905.00;;;20.52;87.72
70254;BME280;57649;42.968;1.608;2024-03-29T11:48:42;94896.69;;;20.43;86.62
70254;BME280;57649;42.968;1.608;2024-03-29T11:51:13;94895.16;;;19.89;89.52
70254;BME280;57649;42.968;1.608;2024-03-29T11:53:44;94901.34;;;20.18;88.95
70254;BME280;57649;42.968;1.608;2024-03-29T11:56:09;94889.13;;;19.68;90.78
70254;BME280;57649;42.968;1.608;2024-03-29T11:58:37;94888.44;;;19.52;92.18
70254;BME280;57649;42.968;1.608;2024-03-29T12:01:03;94865.84;;;19.32;93.69
70254;BME280;57649;42.968;1.608;2024-03-29T12:03:30;94861.19;;;19.38;95.36
70254;BME280;57649;42.968;1.608;2024-03-29T12:05:57;94868.38;;;19.23;95.41
70254;BME280;57649;42.968;1.608;2024-03-29T12:08:31;94878.50;;;19.42;95.90
70254;BME280;57649;42.968;1.608;2024-03-29T12:10:58;94854.03;;;19.76;94.08
70254;BME280;57649;42.968;1.608;2024-03-29T12:13:24;94852.00;;;19.87;92.59
70254;BME280;57649;42.968;1.608;2024-03-29T12:15:49;94840.25;;;19.68;94.17
70254;BME280;57649;42.968;1.608;2024-03-29T12:18:15;94839.03;;;19.55;94.20
70254;BME280;57649;42.968;1.608;2024-03-29T12:20:42;94842.56;;;19.55;95.31
70254;BME280;57649;42.968;1.608;2024-03-29T12:23:08;94839.88;;;19.79;93.40
70254;BME280;57649;42.968;1.608;2024-03-29T12:25:36;94821.38;;;19.81;93.50
70254;BME280;57649;42.968;1.608;2024-03-29T12:28:02;94840.34;;;20.30;91.61
70254;BME280;57649;42.968;1.608;2024-03-29T12:30:30;94859.09;;;20.50;90.93
70254;BME280;57649;42.968;1.608;2024-03-29T12:33:03;94854.06;;;20.38;90.68
70254;BME280;57649;42.968;1.608;2024-03-29T12:35:29;94855.69;;;20.58;90.67
70254;BME280;57649;42.968;1.608;2024-03-29T12:37:58;94848.72;;;20.52;90.00
70254;BME280;57649;42.968;1.608;2024-03-29T12:40:25;94845.00;;;20.05;92.22
70254;BME280;57649;42.968;1.608;2024-03-29T12:42:52;94858.53;;;20.10;92.48
70254;BME280;57649;42.968;1.608;2024-03-29T12:45:18;94854.13;;;20.14;92.83
70254;BME280;57649;42.968;1.608;2024-03-29T12:47:45;94854.28;;;20.23;90.13
70254;BME280;57649;42.968;1.608;2024-03-29T12:50:31;94843.88;;;20.30;91.15
70254;BME280;57649;42.968;1.608;2024-03-29T12:52:58;94842.44;;;20.14;91.15
70254;BME280;57649;42.968;1.608;2024-03-29T12:55:25;94837.06;;;20.52;90.05
70254;BME280;57649;42.968;1.608;2024-03-29T12:57:56;94836.31;;;20.46;89.81
70254;BME280;57649;42.968;1.608;2024-03-29T13:00:22;94861.75;;;20.55;89.08
70254;BME280;57649;42.968;1.608;2024-03-29T13:02:48;94848.13;;;20.36;88.70
70254;BME280;57649;42.968;1.608;2024-03-29T13:05:13;94849.00;;;20.32;89.51
70254;BME280;57649;42.968;1.608;2024-03-29T13:07:39;94840.63;;;20.28;88.47
70254;BME280;57649;42.968;1.608;2024-03-29T13:10:04;94836.53;;;20.31;88.58
70254;BME280;57649;42.968;1.608;2024-03-29T13:12:40;94829.69;;;20.52;87.10